Portada
METAR-TAF:

METAR-TAF

Aeropuertos :

Kédougou, Senegal

latitud: 12-34N, longitud: 012-13W, altitud: 178 m

Observación

El informe se hizo hace 1 hora y 41 minutos, a las 12:00 UTC
Viento 4 kt del oeste
Temperatura 32°C
Humedad 67%
Presión 1013 hPa
Visibilidad 10 km o más
Cielo nuboso a una altura de 1500 ft

METAR: GOTK 141200Z 28004KT 9999 BKN015 32/25 Q1013

Hora: 13:41 (13:41 UTC)


TAF: falta

Observaciones y pronósticos meteorológicos de más de 4000 aeropuertos (mensajes METAR y TAF).

Los puntos amarillos y rojos representan las estaciones disponibles.

Ponga el ratón en el punto deseado para ver el nombre de la estación.

Haga clic para ver las observaciones y los pronósticos meteorológicos.

Para cambiar el mapa : haga clic en los botones verdes con una cruz de color negro para hacer un zoom, en el botón verde con un guión para alejar o en las flechas verdes para mapas adyacentes.


METAR-TAF: